Eastern Tiger — 3FYQ7 — position and weather

sailwx.info

Track history (hours):
 
Tides and Currents Weather Stations Pressure Air Temp Water Temp Dewpoint Dewpoint Depression Visibility Wind Speed Wind Dir Waves Ship Positions

Eastern Tiger

Last reported at 2018-Apr-25 05:08 UTC. Time now 2018-Apr-25 21:52 UTC.
Position N 30°59' E 122°28'.

Length 97 m; draft 4.9 m.

Type: Ship (hazmat cat C). MMSI: 351818000.

Date/timePositionNaut miles runAvg speedWind from/ knotsBaromVisibWave heightAir tempDewpointWater temp
2018-Apr-25 05:08N 30°59' E 122°28'313.5
2018-Apr-25 04:54N 31°00' E 122°25'714.2
2018-Apr-25 04:24N 31°02' E 122°17'512.0
2018-Apr-25 04:00N 31°03' E 122°11'612.7
2018-Apr-25 03:30N 31°04' E 122°04'510.7
2018-Apr-25 02:59N 31°06' E 121°58'511.1
2018-Apr-25 02:30N 31°09' E 121°53'29 8.6
2018-Apr-24 23:08N 31°28' E 121°27'1 9.6
2018-Apr-24 22:59N 31°29' E 121°26'5 9.6
2018-Apr-24 22:30N 31°32' E 121°21'2 4.9
2018-Apr-24 22:00N 31°35' E 121°21'0 0.0
2018-Apr-24 21:30N 31°35' E 121°21'0 0.0
2018-Apr-24 20:57N 31°35' E 121°21'0 0.0
2018-Apr-24 20:30N 31°35' E 121°21'0 0.0
2018-Apr-24 19:57N 31°35' E 121°21'0 0.0
2018-Apr-24 19:30N 31°35' E 121°21'0 0.0
2018-Apr-24 18:57N 31°35' E 121°21'0 0.0
2018-Apr-24 18:27N 31°35' E 121°21'0 0.0
2018-Apr-24 18:00N 31°35' E 121°21'0 0.0
2018-Apr-24 17:30N 31°35' E 121°21'0 0.0
2018-Apr-24 16:57N 31°35' E 121°21'0 0.0
2018-Apr-24 16:27N 31°35' E 121°21'0 0.0
2018-Apr-24 16:00N 31°35' E 121°21'0 0.0
2018-Apr-24 15:30N 31°35' E 121°21'0 0.0
2018-Apr-24 14:57N 31°35' E 121°21'0 0.0
2018-Apr-24 14:27N 31°35' E 121°21'0 0.1
2018-Apr-24 13:57N 31°35' E 121°21'0 0.1
2018-Apr-24 13:27N 31°35' E 121°21'0 0.1
2018-Apr-24 13:00N 31°35' E 121°21'0 0.0
2018-Apr-24 12:30N 31°35' E 121°21'0 0.1
2018-Apr-24 11:57N 31°35' E 121°21'0 0.1
2018-Apr-24 11:30N 31°35' E 121°21'0 0.0
2018-Apr-24 11:00N 31°34' E 121°21'0 0.1
2018-Apr-24 10:30N 31°34' E 121°21'0 0.0
2018-Apr-24 09:57N 31°34' E 121°21'0 0.0
2018-Apr-24 09:30N 31°34' E 121°21'0 0.2
2018-Apr-24 09:01N 31°35' E 121°21'4 7.6
2018-Apr-24 08:30N 31°36' E 121°17'4612.4
2018-Apr-24 04:49N 32°01' E 120°32'412.0
2018-Apr-24 04:30N 32°02' E 120°27'2 2.8
2018-Apr-24 03:58N 32°00' E 120°27'0 0.0
2018-Apr-24 03:28N 32°00' E 120°27'0 0.0
2018-Apr-24 02:58N 32°00' E 120°27'0 0.0
2018-Apr-24 02:28N 32°00' E 120°27'0 0.0
2018-Apr-24 01:58N 32°00' E 120°27'0 0.0
2018-Apr-24 01:28N 32°00' E 120°27'0 0.0
2018-Apr-24 00:58N 32°00' E 120°27'0 0.0
2018-Apr-24 00:28N 32°00' E 120°27'0 0.0
2018-Apr-23 23:58N 32°00' E 120°27'0 0.0
2018-Apr-23 23:28N 32°00' E 120°27'0 0.0
2018-Apr-23 22:55N 32°00' E 120°27'0 0.0
2018-Apr-23 22:28N 32°00' E 120°27'0 0.0
2018-Apr-23 21:55N 32°00' E 120°27'0 0.0
2018-Apr-23 21:28N 32°00' E 120°27'0 0.0
2018-Apr-23 20:58N 32°00' E 120°27'0 0.0
2018-Apr-23 20:28N 32°00' E 120°27'0 0.0
2018-Apr-23 19:58N 32°00' E 120°27'0 0.0
2018-Apr-23 19:28N 32°00' E 120°27'0 0.0
2018-Apr-23 18:58N 32°00' E 120°27'0 0.0
2018-Apr-23 18:28N 32°00' E 120°27'0 0.0
2018-Apr-23 17:58N 32°00' E 120°27'0 0.0
2018-Apr-23 17:28N 32°00' E 120°27'0 0.0
2018-Apr-23 16:58N 32°00' E 120°27'0 0.0
2018-Apr-23 16:28N 32°00' E 120°27'0 0.0
2018-Apr-23 15:58N 32°00' E 120°27'0 0.0
2018-Apr-23 15:28N 32°00' E 120°27'0 0.0
2018-Apr-23 14:58N 32°00' E 120°27'0 0.0
2018-Apr-23 14:25N 32°00' E 120°27'0 0.0
2018-Apr-23 13:58N 32°00' E 120°27'0 0.0
2018-Apr-23 13:28N 32°00' E 120°27'0 0.0
2018-Apr-23 12:58N 32°00' E 120°27'0 0.0
2018-Apr-23 12:28N 32°00' E 120°27'0 0.0
2018-Apr-23 11:58N 32°00' E 120°27'0 0.0
2018-Apr-23 11:22N 32°00' E 120°27'0 0.0
2018-Apr-23 10:58N 32°00' E 120°27'0 0.0
2018-Apr-23 10:28N 32°00' E 120°27'0 0.0
2018-Apr-23 09:53N 32°00' E 120°27'0 0.0
2018-Apr-23 09:28N 32°00' E 120°27'0 0.0
2018-Apr-23 08:58N 32°00' E 120°27'0 0.0
2018-Apr-23 08:28N 32°00' E 120°27'0 0.0
2018-Apr-23 07:58N 32°00' E 120°27'0 0.0
2018-Apr-23 07:25N 32°00' E 120°27'0 0.0
2018-Apr-23 06:58N 32°00' E 120°27'0 0.0
2018-Apr-23 06:28N 32°00' E 120°27'0 0.0
2018-Apr-23 05:58N 32°00' E 120°27'0 0.0
2018-Apr-23 05:25N 32°00' E 120°27'0 0.0
2018-Apr-23 04:58N 32°00' E 120°27'0 0.0
2018-Apr-23 04:28N 32°00' E 120°27'0 0.0
2018-Apr-23 03:58N 32°00' E 120°27'0 0.0
2018-Apr-23 03:28N 32°00' E 120°27'0 0.0
2018-Apr-23 02:58N 32°00' E 120°27'0 0.0
2018-Apr-23 02:28N 32°00' E 120°27'0 0.0
2018-Apr-23 01:58N 32°00' E 120°27'0 0.0
2018-Apr-23 01:28N 32°00' E 120°27'0 0.0
2018-Apr-23 00:58N 32°00' E 120°27'0 0.0
2018-Apr-23 00:25N 32°00' E 120°27'0 0.0
2018-Apr-22 23:58N 32°00' E 120°27'0 0.0
2018-Apr-22 23:28N 32°00' E 120°27'0 0.0
2018-Apr-22 22:58N 32°00' E 120°27'0 0.0
2018-Apr-22 22:28N 32°00' E 120°27'0 0.0
2018-Apr-22 21:58N 32°00' E 120°27'0 0.0
2018-Apr-22 20:13N 32°00' E 120°27'0 0.0
2018-Apr-22 19:55N 32°00' E 120°27'0 0.0
2018-Apr-22 12:37N 32°00' E 120°27'0 0.0
2018-Apr-22 12:22N 32°00' E 120°27'0 0.0
2018-Apr-22 10:55N 32°00' E 120°27'0 0.0
2018-Apr-22 09:34N 32°00' E 120°27'0 0.0
2018-Apr-22 09:19N 32°00' E 120°27'0 0.0
2018-Apr-22 08:04N 32°00' E 120°27'0 0.0
2018-Apr-22 07:46N 32°00' E 120°27'0 0.0
2018-Apr-22 07:16N 32°00' E 120°27'0 0.0
2018-Apr-22 03:18N 32°00' E 120°27'1 4.0
2018-Apr-22 02:59N 32°02' E 120°27'5 7.6
2018-Apr-22 02:16N 32°01' E 120°33'33 9.6
2018-Apr-21 22:49N 31°44' E 121°07'412.7
2018-Apr-21 22:30N 31°41' E 121°10'613.0
2018-Apr-21 22:00N 31°37' E 121°16'5 8.9
2018-Apr-21 21:28N 31°35' E 121°21'0 0.0
2018-Apr-21 20:55N 31°35' E 121°21'0 0.0
2018-Apr-21 20:28N 31°35' E 121°21'0 0.0
2018-Apr-21 19:58N 31°35' E 121°21'0 0.0
2018-Apr-21 19:25N 31°35' E 121°21'0 0.0
2018-Apr-21 18:58N 31°35' E 121°21'0 0.0
2018-Apr-21 18:25N 31°35' E 121°21'0 0.0
2018-Apr-21 17:58N 31°35' E 121°21'0 0.2
2018-Apr-21 17:25N 31°35' E 121°21'0 0.0
2018-Apr-21 16:58N 31°34' E 121°21'0 0.1
2018-Apr-21 16:25N 31°35' E 121°21'0 0.0
2018-Apr-21 15:55N 31°35' E 121°21'0 0.0
2018-Apr-21 15:28N 31°35' E 121°21'0 0.0
2018-Apr-21 14:40N 31°34' E 121°21'0 0.1
2018-Apr-21 14:25N 31°35' E 121°21'0 0.1
2018-Apr-21 13:58N 31°35' E 121°21'0 0.0
2018-Apr-21 13:22N 31°35' E 121°21'0 0.1
2018-Apr-21 12:55N 31°35' E 121°21'0 0.1
2018-Apr-21 12:28N 31°35' E 121°21'0 0.0
2018-Apr-21 11:58N 31°35' E 121°21'0 0.1
2018-Apr-21 11:28N 31°35' E 121°21'0 0.1
2018-Apr-21 10:49N 31°35' E 121°21'0 0.0
2018-Apr-21 10:28N 31°35' E 121°21'0 0.0
2018-Apr-21 09:55N 31°35' E 121°21'0 0.2
2018-Apr-21 09:30N 31°35' E 121°21'2 5.0
2018-Apr-21 09:00N 31°32' E 121°22'3910.9
2018-Apr-21 05:26N 31°07' E 121°57'410.0
2018-Apr-21 05:00N 31°05' E 122°01'611.1
2018-Apr-21 04:30N 31°04' E 122°07'710.0
2018-Apr-21 03:48N 31°03' E 122°15'18 0.6
2018-Apr-19 19:38N 31°01' E 122°36'0 0.1
2018-Apr-19 19:20N 31°01' E 122°36'0 0.3
2018-Apr-19 18:58N 31°01' E 122°36'2711.0
2018-Apr-19 16:34N 30°55' E 123°06'412.6
2018-Apr-19 16:16N 30°54' E 123°10'412.4
2018-Apr-19 15:59N 30°53' E 123°15'51212.1
2018-Apr-17 21:41N 22°29' E 121°33'  
Track history (hours):
 
Tides and Currents Weather Stations Pressure Air Temp Water Temp Dewpoint Dewpoint Depression Visibility Wind Speed Wind Dir Waves Ship Positions

Eastern Tiger

Last reported at 2018-Apr-25 05:08 UTC. Time now 2018-Apr-25 21:52 UTC.
Position N 30°59' E 122°28'.

Length 97 m; draft 4.9 m.

Type: Ship (hazmat cat C). MMSI: 351818000.

Date/timePositionNaut miles runAvg speedWind from/ knotsBaromVisibWave heightAir tempDewpointWater temp
2018-Apr-25 05:08N 30°59' E 122°28'313.5
2018-Apr-25 04:54N 31°00' E 122°25'714.2
2018-Apr-25 04:24N 31°02' E 122°17'512.0
2018-Apr-25 04:00N 31°03' E 122°11'612.7
2018-Apr-25 03:30N 31°04' E 122°04'510.7
2018-Apr-25 02:59N 31°06' E 121°58'511.1
2018-Apr-25 02:30N 31°09' E 121°53'29 8.6
2018-Apr-24 23:08N 31°28' E 121°27'1 9.6
2018-Apr-24 22:59N 31°29' E 121°26'5 9.6
2018-Apr-24 22:30N 31°32' E 121°21'2 4.9
2018-Apr-24 22:00N 31°35' E 121°21'0 0.0
2018-Apr-24 21:30N 31°35' E 121°21'0 0.0
2018-Apr-24 20:57N 31°35' E 121°21'0 0.0
2018-Apr-24 20:30N 31°35' E 121°21'0 0.0
2018-Apr-24 19:57N 31°35' E 121°21'0 0.0
2018-Apr-24 19:30N 31°35' E 121°21'0 0.0
2018-Apr-24 18:57N 31°35' E 121°21'0 0.0
2018-Apr-24 18:27N 31°35' E 121°21'0 0.0
2018-Apr-24 18:00N 31°35' E 121°21'0 0.0
2018-Apr-24 17:30N 31°35' E 121°21'0 0.0
2018-Apr-24 16:57N 31°35' E 121°21'0 0.0
2018-Apr-24 16:27N 31°35' E 121°21'0 0.0
2018-Apr-24 16:00N 31°35' E 121°21'0 0.0
2018-Apr-24 15:30N 31°35' E 121°21'0 0.0
2018-Apr-24 14:57N 31°35' E 121°21'0 0.0
2018-Apr-24 14:27N 31°35' E 121°21'0 0.1
2018-Apr-24 13:57N 31°35' E 121°21'0 0.1
2018-Apr-24 13:27N 31°35' E 121°21'0 0.1
2018-Apr-24 13:00N 31°35' E 121°21'0 0.0
2018-Apr-24 12:30N 31°35' E 121°21'0 0.1
2018-Apr-24 11:57N 31°35' E 121°21'0 0.1
2018-Apr-24 11:30N 31°35' E 121°21'0 0.0
2018-Apr-24 11:00N 31°34' E 121°21'0 0.1
2018-Apr-24 10:30N 31°34' E 121°21'0 0.0
2018-Apr-24 09:57N 31°34' E 121°21'0 0.0
2018-Apr-24 09:30N 31°34' E 121°21'0 0.2
2018-Apr-24 09:01N 31°35' E 121°21'4 7.6
2018-Apr-24 08:30N 31°36' E 121°17'4612.4
2018-Apr-24 04:49N 32°01' E 120°32'412.0
2018-Apr-24 04:30N 32°02' E 120°27'2 2.8
2018-Apr-24 03:58N 32°00' E 120°27'0 0.0
2018-Apr-24 03:28N 32°00' E 120°27'0 0.0
2018-Apr-24 02:58N 32°00' E 120°27'0 0.0
2018-Apr-24 02:28N 32°00' E 120°27'0 0.0
2018-Apr-24 01:58N 32°00' E 120°27'0 0.0
2018-Apr-24 01:28N 32°00' E 120°27'0 0.0
2018-Apr-24 00:58N 32°00' E 120°27'0 0.0
2018-Apr-24 00:28N 32°00' E 120°27'0 0.0
2018-Apr-23 23:58N 32°00' E 120°27'0 0.0
2018-Apr-23 23:28N 32°00' E 120°27'0 0.0
2018-Apr-23 22:55N 32°00' E 120°27'0 0.0
2018-Apr-23 22:28N 32°00' E 120°27'0 0.0
2018-Apr-23 21:55N 32°00' E 120°27'0 0.0
2018-Apr-23 21:28N 32°00' E 120°27'0 0.0
2018-Apr-23 20:58N 32°00' E 120°27'0 0.0
2018-Apr-23 20:28N 32°00' E 120°27'0 0.0
2018-Apr-23 19:58N 32°00' E 120°27'0 0.0
2018-Apr-23 19:28N 32°00' E 120°27'0 0.0
2018-Apr-23 18:58N 32°00' E 120°27'0 0.0
2018-Apr-23 18:28N 32°00' E 120°27'0 0.0
2018-Apr-23 17:58N 32°00' E 120°27'0 0.0
2018-Apr-23 17:28N 32°00' E 120°27'0 0.0
2018-Apr-23 16:58N 32°00' E 120°27'0 0.0
2018-Apr-23 16:28N 32°00' E 120°27'0 0.0
2018-Apr-23 15:58N 32°00' E 120°27'0 0.0
2018-Apr-23 15:28N 32°00' E 120°27'0 0.0
2018-Apr-23 14:58N 32°00' E 120°27'0 0.0
2018-Apr-23 14:25N 32°00' E 120°27'0 0.0
2018-Apr-23 13:58N 32°00' E 120°27'0 0.0
2018-Apr-23 13:28N 32°00' E 120°27'0 0.0
2018-Apr-23 12:58N 32°00' E 120°27'0 0.0
2018-Apr-23 12:28N 32°00' E 120°27'0 0.0
2018-Apr-23 11:58N 32°00' E 120°27'0 0.0
2018-Apr-23 11:22N 32°00' E 120°27'0 0.0
2018-Apr-23 10:58N 32°00' E 120°27'0 0.0
2018-Apr-23 10:28N 32°00' E 120°27'0 0.0
2018-Apr-23 09:53N 32°00' E 120°27'0 0.0
2018-Apr-23 09:28N 32°00' E 120°27'0 0.0
2018-Apr-23 08:58N 32°00' E 120°27'0 0.0
2018-Apr-23 08:28N 32°00' E 120°27'0 0.0
2018-Apr-23 07:58N 32°00' E 120°27'0 0.0
2018-Apr-23 07:25N 32°00' E 120°27'0 0.0
2018-Apr-23 06:58N 32°00' E 120°27'0 0.0
2018-Apr-23 06:28N 32°00' E 120°27'0 0.0
2018-Apr-23 05:58N 32°00' E 120°27'0 0.0
2018-Apr-23 05:25N 32°00' E 120°27'0 0.0
2018-Apr-23 04:58N 32°00' E 120°27'0 0.0
2018-Apr-23 04:28N 32°00' E 120°27'0 0.0
2018-Apr-23 03:58N 32°00' E 120°27'0 0.0
2018-Apr-23 03:28N 32°00' E 120°27'0 0.0
2018-Apr-23 02:58N 32°00' E 120°27'0 0.0
2018-Apr-23 02:28N 32°00' E 120°27'0 0.0
2018-Apr-23 01:58N 32°00' E 120°27'0 0.0
2018-Apr-23 01:28N 32°00' E 120°27'0 0.0
2018-Apr-23 00:58N 32°00' E 120°27'0 0.0
2018-Apr-23 00:25N 32°00' E 120°27'0 0.0
2018-Apr-22 23:58N 32°00' E 120°27'0 0.0
2018-Apr-22 23:28N 32°00' E 120°27'0 0.0
2018-Apr-22 22:58N 32°00' E 120°27'0 0.0
2018-Apr-22 22:28N 32°00' E 120°27'0 0.0
2018-Apr-22 21:58N 32°00' E 120°27'0 0.0
2018-Apr-22 20:13N 32°00' E 120°27'0 0.0
2018-Apr-22 19:55N 32°00' E 120°27'0 0.0
2018-Apr-22 12:37N 32°00' E 120°27'0 0.0
2018-Apr-22 12:22N 32°00' E 120°27'0 0.0
2018-Apr-22 10:55N 32°00' E 120°27'0 0.0
2018-Apr-22 09:34N 32°00' E 120°27'0 0.0
2018-Apr-22 09:19N 32°00' E 120°27'0 0.0
2018-Apr-22 08:04N 32°00' E 120°27'0 0.0
2018-Apr-22 07:46N 32°00' E 120°27'0 0.0
2018-Apr-22 07:16N 32°00' E 120°27'0 0.0
2018-Apr-22 03:18N 32°00' E 120°27'1 4.0
2018-Apr-22 02:59N 32°02' E 120°27'5 7.6
2018-Apr-22 02:16N 32°01' E 120°33'33 9.6
2018-Apr-21 22:49N 31°44' E 121°07'412.7
2018-Apr-21 22:30N 31°41' E 121°10'613.0
2018-Apr-21 22:00N 31°37' E 121°16'5 8.9
2018-Apr-21 21:28N 31°35' E 121°21'0 0.0
2018-Apr-21 20:55N 31°35' E 121°21'0 0.0
2018-Apr-21 20:28N 31°35' E 121°21'0 0.0
2018-Apr-21 19:58N 31°35' E 121°21'0 0.0
2018-Apr-21 19:25N 31°35' E 121°21'0 0.0
2018-Apr-21 18:58N 31°35' E 121°21'0 0.0
2018-Apr-21 18:25N 31°35' E 121°21'0 0.0
2018-Apr-21 17:58N 31°35' E 121°21'0 0.2
2018-Apr-21 17:25N 31°35' E 121°21'0 0.0
2018-Apr-21 16:58N 31°34' E 121°21'0 0.1
2018-Apr-21 16:25N 31°35' E 121°21'0 0.0
2018-Apr-21 15:55N 31°35' E 121°21'0 0.0
2018-Apr-21 15:28N 31°35' E 121°21'0 0.0
2018-Apr-21 14:40N 31°34' E 121°21'0 0.1
2018-Apr-21 14:25N 31°35' E 121°21'0 0.1
2018-Apr-21 13:58N 31°35' E 121°21'0 0.0
2018-Apr-21 13:22N 31°35' E 121°21'0 0.1
2018-Apr-21 12:55N 31°35' E 121°21'0 0.1
2018-Apr-21 12:28N 31°35' E 121°21'0 0.0
2018-Apr-21 11:58N 31°35' E 121°21'0 0.1
2018-Apr-21 11:28N 31°35' E 121°21'0 0.1
2018-Apr-21 10:49N 31°35' E 121°21'0 0.0
2018-Apr-21 10:28N 31°35' E 121°21'0 0.0
2018-Apr-21 09:55N 31°35' E 121°21'0 0.2
2018-Apr-21 09:30N 31°35' E 121°21'2 5.0
2018-Apr-21 09:00N 31°32' E 121°22'3910.9
2018-Apr-21 05:26N 31°07' E 121°57'410.0
2018-Apr-21 05:00N 31°05' E 122°01'611.1
2018-Apr-21 04:30N 31°04' E 122°07'710.0
2018-Apr-21 03:48N 31°03' E 122°15'18 0.6
2018-Apr-19 19:38N 31°01' E 122°36'0 0.1
2018-Apr-19 19:20N 31°01' E 122°36'0 0.3
2018-Apr-19 18:58N 31°01' E 122°36'2711.0
2018-Apr-19 16:34N 30°55' E 123°06'412.6
2018-Apr-19 16:16N 30°54' E 123°10'412.4
2018-Apr-19 15:59N 30°53' E 123°15'51212.1
2018-Apr-17 21:41N 22°29' E 121°33'  

Dump ship's entire track history